createdAt,value
2019-03-03T00:01:24.531Z,97.90
2019-03-03T00:04:06.870Z,97.90
2019-03-03T00:06:48.186Z,98.00
2019-03-03T00:09:27.728Z,98.50
2019-03-03T00:12:12.129Z,98.20
2019-03-03T00:14:48.281Z,98.20
2019-03-03T00:17:35.701Z,98.20
2019-03-03T00:20:13.109Z,98.40
2019-03-03T00:23:03.665Z,98.50
2019-03-03T00:25:42.636Z,98.40
2019-03-03T00:28:24.407Z,98.80
2019-03-03T00:31:11.575Z,99.00
2019-03-03T00:33:58.741Z,99.00
2019-03-03T00:36:53.924Z,99.10
2019-03-03T00:40:06.365Z,99.20
2019-03-03T00:43:00.223Z,99.20
2019-03-03T00:46:10.993Z,99.30
2019-03-03T00:49:22.457Z,99.30
2019-03-03T00:52:33.844Z,99.30
2019-03-03T00:55:30.732Z,99.40
2019-03-03T00:58:42.223Z,99.60
2019-03-03T01:01:53.227Z,99.60
2019-03-03T01:04:40.849Z,99.80
2019-03-03T01:07:45.777Z,99.90
2019-03-03T01:10:43.724Z,99.90
2019-03-03T01:13:56.390Z,99.90
2019-03-03T01:17:04.396Z,99.90
2019-03-03T01:19:53.928Z,99.90
2019-03-03T01:22:46.154Z,99.90
2019-03-03T01:25:25.800Z,99.90
2019-03-03T01:28:17.968Z,99.90
2019-03-03T01:31:08.189Z,99.90
2019-03-03T01:33:53.434Z,99.90
2019-03-03T01:36:37.307Z,99.90
2019-03-03T01:39:20.693Z,99.90
2019-03-03T01:42:17.422Z,99.90
2019-03-03T01:45:03.149Z,99.90
2019-03-03T01:47:52.994Z,99.90
2019-03-03T01:50:34.285Z,99.90
2019-03-03T01:53:23.342Z,99.90
2019-03-03T01:56:18.817Z,99.90
2019-03-03T01:58:58.546Z,99.90
2019-03-03T02:01:34.595Z,99.90
2019-03-03T02:04:09.983Z,99.90
2019-03-03T02:06:50.683Z,99.90
2019-03-03T02:09:42.150Z,99.90
2019-03-03T02:12:22.715Z,99.90
2019-03-03T02:15:10.884Z,99.90
2019-03-03T02:17:54.914Z,99.90
2019-03-03T02:20:36.229Z,99.90
2019-03-03T02:23:10.150Z,99.90
2019-03-03T02:25:48.594Z,99.90
2019-03-03T02:28:33.119Z,99.90
2019-03-03T02:31:15.499Z,99.90
2019-03-03T02:33:57.827Z,99.90
2019-03-03T02:36:38.892Z,99.90
2019-03-03T02:39:17.320Z,99.90
2019-03-03T02:42:02.571Z,99.90
2019-03-03T02:44:43.565Z,99.90
2019-03-03T02:47:27.028Z,99.90
2019-03-03T02:50:05.543Z,99.90
2019-03-03T02:52:46.863Z,99.90
2019-03-03T02:55:28.408Z,99.90
2019-03-03T02:58:08.060Z,99.90
2019-03-03T03:00:59.185Z,99.90
2019-03-03T03:03:48.875Z,99.90
2019-03-03T03:06:35.550Z,99.90
2019-03-03T03:09:29.797Z,99.90
2019-03-03T03:12:36.175Z,99.90
2019-03-03T03:15:36.090Z,99.90
2019-03-03T03:18:19.455Z,99.90
2019-03-03T03:21:40.892Z,99.90
2019-03-03T03:24:50.720Z,99.90
2019-03-03T03:27:54.527Z,99.90
2019-03-03T03:30:39.533Z,99.90
2019-03-03T03:33:49.801Z,99.90
2019-03-03T03:36:49.935Z,99.90
2019-03-03T03:39:52.894Z,99.90
2019-03-03T03:42:44.964Z,99.90
2019-03-03T03:45:58.997Z,99.90
2019-03-03T03:48:52.333Z,99.90
2019-03-03T03:52:03.803Z,99.90
2019-03-03T03:55:18.182Z,99.90
2019-03-03T03:58:19.919Z,99.90
2019-03-03T04:01:19.394Z,99.90
2019-03-03T04:04:19.552Z,99.90
2019-03-03T04:07:12.683Z,99.90
2019-03-03T04:10:00.803Z,99.90
2019-03-03T04:13:16.475Z,99.90
2019-03-03T04:16:13.658Z,99.90
2019-03-03T04:19:14.341Z,99.90
2019-03-03T04:22:29.970Z,99.90
2019-03-03T04:25:28.166Z,99.90
2019-03-03T04:29:02.185Z,99.90
2019-03-03T04:32:22.367Z,99.90
2019-03-03T04:35:24.829Z,99.90
2019-03-03T04:38:43.074Z,99.90
2019-03-03T04:41:38.079Z,99.90
2019-03-03T04:44:49.099Z,99.90
2019-03-03T04:47:32.738Z,99.90
2019-03-03T04:50:30.109Z,99.90
2019-03-03T04:53:33.482Z,99.90
2019-03-03T04:56:33.472Z,99.90
2019-03-03T04:59:51.399Z,99.90
2019-03-03T05:03:01.111Z,99.90
2019-03-03T05:06:01.970Z,99.90
2019-03-03T05:09:05.435Z,99.90
2019-03-03T05:12:40.921Z,99.90
2019-03-03T05:15:43.564Z,99.90
2019-03-03T05:18:32.277Z,99.90
2019-03-03T05:21:05.074Z,99.90
2019-03-03T05:23:53.766Z,99.90
2019-03-03T05:26:37.244Z,99.90
2019-03-03T05:29:13.230Z,99.90
2019-03-03T05:31:53.003Z,99.90
2019-03-03T05:34:33.378Z,99.90
2019-03-03T05:37:18.004Z,99.90
2019-03-03T05:39:58.002Z,99.90
2019-03-03T05:42:39.058Z,99.90
2019-03-03T05:45:26.381Z,99.90
2019-03-03T05:48:08.974Z,99.90
2019-03-03T05:50:45.812Z,99.90
2019-03-03T05:53:28.757Z,99.90
2019-03-03T05:56:08.875Z,99.90
2019-03-03T05:58:59.409Z,99.90
2019-03-03T06:01:38.459Z,99.90
2019-03-03T06:04:27.482Z,99.90
2019-03-03T06:07:10.394Z,99.90
2019-03-03T06:09:57.854Z,99.90
2019-03-03T06:12:46.403Z,99.90
2019-03-03T06:15:34.277Z,99.90
2019-03-03T06:18:18.506Z,99.90
2019-03-03T06:20:58.211Z,99.90
2019-03-03T06:23:41.547Z,99.90
2019-03-03T06:26:22.899Z,99.90
2019-03-03T06:29:05.383Z,99.90
2019-03-03T06:31:44.501Z,99.90
2019-03-03T06:34:24.305Z,99.90
2019-03-03T06:37:03.260Z,99.90
2019-03-03T06:39:56.268Z,99.90
2019-03-03T06:42:38.084Z,99.90
2019-03-03T06:45:29.326Z,99.90
2019-03-03T06:48:08.896Z,99.90
2019-03-03T06:50:43.446Z,99.90
2019-03-03T06:53:24.349Z,99.90
2019-03-03T06:56:02.272Z,99.90
2019-03-03T06:58:55.760Z,99.90
2019-03-03T07:01:30.427Z,99.90
2019-03-03T07:04:21.984Z,99.90
2019-03-03T07:07:02.348Z,99.90
2019-03-03T07:09:39.145Z,99.90
2019-03-03T07:12:15.187Z,99.90
2019-03-03T07:14:54.933Z,99.90
2019-03-03T07:17:38.549Z,99.90
2019-03-03T07:20:17.888Z,99.90
2019-03-03T07:22:58.225Z,99.90
2019-03-03T07:25:41.987Z,99.90
2019-03-03T07:28:18.178Z,99.80
2019-03-03T07:31:13.692Z,99.70
2019-03-03T07:34:03.072Z,99.30
2019-03-03T07:36:48.540Z,99.10
2019-03-03T07:39:25.863Z,99.00
2019-03-03T07:42:06.231Z,98.50
2019-03-03T07:44:43.374Z,98.50
2019-03-03T07:47:21.145Z,98.40
2019-03-03T07:50:14.511Z,98.30
2019-03-03T07:53:11.919Z,98.00
2019-03-03T07:55:54.433Z,97.90
2019-03-03T07:58:40.877Z,97.60
2019-03-03T08:01:19.747Z,97.50
2019-03-03T08:03:54.553Z,97.20
2019-03-03T08:06:27.407Z,97.00
2019-03-03T08:09:05.608Z,97.00
2019-03-03T08:11:40.776Z,97.00
2019-03-03T08:14:16.554Z,96.40
2019-03-03T08:16:49.737Z,95.90
2019-03-03T08:19:30.485Z,95.60
2019-03-03T08:22:17.194Z,95.30
2019-03-03T08:24:59.331Z,95.20
2019-03-03T08:27:40.314Z,95.00
2019-03-03T08:30:17.495Z,94.90
2019-03-03T08:32:50.402Z,94.80
2019-03-03T08:35:28.534Z,94.80
2019-03-03T08:38:04.575Z,94.90
2019-03-03T08:40:43.634Z,95.20
2019-03-03T08:43:38.201Z,95.40
2019-03-03T08:46:34.536Z,95.80
2019-03-03T08:49:24.106Z,96.00
2019-03-03T08:52:05.917Z,96.30
2019-03-03T08:55:15.211Z,96.60
2019-03-03T08:58:05.948Z,96.70
2019-03-03T09:01:04.459Z,96.80
2019-03-03T09:03:46.903Z,96.60
2019-03-03T09:06:43.808Z,96.40
2019-03-03T09:09:44.709Z,96.00
2019-03-03T09:12:44.054Z,95.50
2019-03-03T09:15:22.803Z,95.30
2019-03-03T09:18:27.853Z,95.20
2019-03-03T09:21:16.498Z,95.00
2019-03-03T09:24:13.786Z,94.90
2019-03-03T09:27:23.137Z,94.60
2019-03-03T09:30:11.410Z,94.10
2019-03-03T09:33:07.273Z,93.70
2019-03-03T09:36:01.289Z,93.20
2019-03-03T09:38:53.803Z,93.40
2019-03-03T09:41:43.946Z,93.40
2019-03-03T09:44:36.777Z,93.80
2019-03-03T09:47:32.598Z,93.90
2019-03-03T09:50:19.451Z,94.00
2019-03-03T09:53:11.818Z,94.00
2019-03-03T09:56:10.499Z,93.40
2019-03-03T09:59:15.175Z,93.10
2019-03-03T10:02:02.737Z,92.60
2019-03-03T10:04:48.254Z,92.00
2019-03-03T10:07:55.594Z,91.80
2019-03-03T10:10:32.838Z,91.30
2019-03-03T10:13:25.109Z,90.90
2019-03-03T10:16:33.638Z,90.40
2019-03-03T10:19:23.546Z,90.70
2019-03-03T10:22:12.068Z,90.70
2019-03-03T10:25:00.649Z,90.80
2019-03-03T10:27:45.384Z,90.90
2019-03-03T10:30:42.009Z,91.10
2019-03-03T10:33:21.323Z,91.20
2019-03-03T10:36:09.308Z,91.50
2019-03-03T10:38:51.619Z,91.90
2019-03-03T10:41:40.415Z,92.10
2019-03-03T10:44:32.266Z,92.50
2019-03-03T10:47:28.838Z,92.60
2019-03-03T10:50:27.891Z,92.70
2019-03-03T10:53:24.006Z,92.80
2019-03-03T10:56:21.343Z,93.00
2019-03-03T10:59:00.147Z,93.20
2019-03-03T11:01:59.222Z,93.60
2019-03-03T11:04:49.116Z,93.60
2019-03-03T11:07:42.370Z,93.80
2019-03-03T11:10:32.225Z,93.80
2019-03-03T11:13:34.509Z,93.90
2019-03-03T11:16:42.652Z,94.00
2019-03-03T11:19:30.108Z,93.90
2019-03-03T11:22:33.673Z,94.00
2019-03-03T11:25:37.950Z,94.10
2019-03-03T11:28:36.155Z,94.30
2019-03-03T11:31:35.544Z,94.90
2019-03-03T11:34:29.890Z,95.80
2019-03-03T11:37:29.502Z,96.00
2019-03-03T11:40:38.781Z,96.30
2019-03-03T11:43:45.997Z,96.60
2019-03-03T11:46:48.147Z,97.20
2019-03-03T11:49:39.189Z,97.50
2019-03-03T11:52:26.009Z,98.10
2019-03-03T11:55:23.238Z,98.20
2019-03-03T11:58:18.792Z,98.20
2019-03-03T12:01:02.469Z,98.60
2019-03-03T12:04:01.589Z,98.90
2019-03-03T12:06:58.570Z,99.10
2019-03-03T12:09:46.407Z,99.70
2019-03-03T12:12:36.482Z,99.90
2019-03-03T12:15:19.127Z,99.90
2019-03-03T12:18:19.459Z,99.90
2019-03-03T12:21:00.342Z,99.90
2019-03-03T12:23:52.579Z,99.90
2019-03-03T12:26:49.217Z,99.90
2019-03-03T12:29:57.235Z,99.90
2019-03-03T12:32:46.623Z,99.90
2019-03-03T12:35:44.628Z,99.90
2019-03-03T12:38:26.940Z,99.90
2019-03-03T12:41:19.252Z,99.90
2019-03-03T12:44:15.949Z,99.90
2019-03-03T12:47:00.534Z,99.90
2019-03-03T12:49:46.774Z,99.90
2019-03-03T12:52:28.999Z,99.90
2019-03-03T12:55:23.431Z,99.90
2019-03-03T12:58:12.128Z,99.90
2019-03-03T13:01:04.266Z,99.90
2019-03-03T13:03:53.372Z,99.90
2019-03-03T13:06:46.578Z,99.90
2019-03-03T13:09:43.456Z,99.90
2019-03-03T13:12:43.051Z,99.90
2019-03-03T13:15:41.841Z,99.90
2019-03-03T13:18:19.138Z,99.90
2019-03-03T13:21:11.223Z,99.90
2019-03-03T13:23:57.191Z,99.90
2019-03-03T13:26:53.536Z,99.90
2019-03-03T13:29:40.068Z,99.90
2019-03-03T13:32:19.421Z,99.90
2019-03-03T13:35:12.007Z,99.90
2019-03-03T13:37:54.797Z,99.90
2019-03-03T13:40:34.884Z,99.90
2019-03-03T13:43:08.599Z,99.90
2019-03-03T13:45:40.293Z,99.90
2019-03-03T13:48:15.920Z,99.90
2019-03-03T13:50:50.726Z,99.90
2019-03-03T13:53:25.561Z,99.90
2019-03-03T13:56:05.642Z,99.90
2019-03-03T13:58:52.769Z,99.90
2019-03-03T14:01:30.325Z,99.90
2019-03-03T14:04:03.697Z,99.90
2019-03-03T14:06:37.168Z,99.90
2019-03-03T14:09:12.263Z,99.90
2019-03-03T14:11:51.723Z,99.90
2019-03-03T14:14:22.795Z,99.90
2019-03-03T14:17:02.472Z,99.90
2019-03-03T14:19:35.848Z,99.90
2019-03-03T14:22:07.396Z,99.90
2019-03-03T14:24:40.642Z,99.90
2019-03-03T14:27:12.918Z,99.90
2019-03-03T14:29:44.031Z,99.90
2019-03-03T14:32:20.738Z,99.90
2019-03-03T14:34:53.282Z,99.90
2019-03-03T14:37:25.259Z,99.90
2019-03-03T14:40:03.126Z,99.90
2019-03-03T14:42:37.398Z,99.90
2019-03-03T14:45:09.709Z,99.90
2019-03-03T14:47:40.982Z,99.90
2019-03-03T14:50:12.354Z,99.90
2019-03-03T14:52:43.810Z,99.90
2019-03-03T14:55:16.925Z,99.90
2019-03-03T14:58:01.122Z,99.90
2019-03-03T15:00:41.587Z,99.90
2019-03-03T15:03:14.149Z,99.90
2019-03-03T15:05:45.278Z,99.90
2019-03-03T15:08:19.176Z,99.90
2019-03-03T15:10:50.793Z,99.90
2019-03-03T15:13:21.577Z,99.90
2019-03-03T15:15:52.232Z,99.90
2019-03-03T15:18:22.667Z,99.90
2019-03-03T15:20:52.960Z,99.90
2019-03-03T15:23:23.388Z,99.90
2019-03-03T15:25:53.903Z,99.90
2019-03-03T15:28:25.455Z,99.90
2019-03-03T15:30:56.579Z,99.90
2019-03-03T15:33:27.230Z,99.90
2019-03-03T15:35:59.418Z,99.90
2019-03-03T15:38:30.230Z,99.90
2019-03-03T15:41:01.250Z,99.90
2019-03-03T15:43:31.864Z,99.90
2019-03-03T15:46:02.498Z,99.90
2019-03-03T15:48:32.854Z,99.90
2019-03-03T15:51:03.456Z,99.90
2019-03-03T15:53:34.124Z,99.90
2019-03-03T15:56:04.730Z,99.90
2019-03-03T15:58:36.852Z,99.90
2019-03-03T16:01:15.310Z,99.90
2019-03-03T16:03:46.651Z,99.90
2019-03-03T16:06:19.121Z,99.90
2019-03-03T16:08:50.370Z,99.90
2019-03-03T16:11:22.967Z,99.90
2019-03-03T16:13:54.304Z,99.90
2019-03-03T16:16:26.389Z,99.90
2019-03-03T16:18:57.869Z,99.90
2019-03-03T16:21:30.775Z,99.90
2019-03-03T16:24:02.171Z,99.90
2019-03-03T16:26:33.968Z,99.90
2019-03-03T16:29:05.995Z,99.90
2019-03-03T16:31:43.215Z,99.90
2019-03-03T16:34:15.669Z,99.90
2019-03-03T16:36:48.882Z,99.90
2019-03-03T16:39:24.185Z,99.90
2019-03-03T16:41:58.332Z,99.90
2019-03-03T16:44:33.578Z,99.90
2019-03-03T16:47:06.720Z,99.90
2019-03-03T16:49:39.684Z,99.90
2019-03-03T16:52:13.396Z,99.90
2019-03-03T16:54:47.917Z,99.90
2019-03-03T16:57:22.338Z,99.90
2019-03-03T16:59:56.533Z,99.90
2019-03-03T17:02:30.485Z,99.90
2019-03-03T17:05:03.977Z,99.90
2019-03-03T17:07:39.214Z,99.90
2019-03-03T17:10:12.441Z,99.90
2019-03-03T17:12:45.615Z,99.90
2019-03-03T17:15:20.509Z,99.90
2019-03-03T17:17:53.821Z,99.90
2019-03-03T17:20:35.393Z,99.90
2019-03-03T17:23:08.336Z,99.90
2019-03-03T17:25:41.134Z,99.90
2019-03-03T17:28:14.827Z,99.90
2019-03-03T17:30:51.235Z,99.90
2019-03-03T17:33:25.535Z,99.90
2019-03-03T17:36:01.221Z,99.90
2019-03-03T17:38:37.485Z,99.90
2019-03-03T17:41:15.555Z,99.90
2019-03-03T17:43:49.203Z,99.90
2019-03-03T17:46:25.776Z,99.90
2019-03-03T17:49:02.314Z,99.90
2019-03-03T17:51:38.703Z,99.90
2019-03-03T17:54:12.773Z,99.90
2019-03-03T17:56:52.606Z,99.90
2019-03-03T17:59:33.481Z,99.90
2019-03-03T18:02:14.471Z,99.90
2019-03-03T18:04:55.030Z,99.90
2019-03-03T18:07:33.788Z,99.90
2019-03-03T18:10:08.551Z,99.90
2019-03-03T18:12:40.659Z,99.90
2019-03-03T18:15:12.780Z,99.90
2019-03-03T18:17:43.822Z,99.90
2019-03-03T18:20:15.561Z,99.90
2019-03-03T18:22:48.048Z,99.90
2019-03-03T18:25:19.726Z,99.90
2019-03-03T18:27:51.307Z,99.90
2019-03-03T18:30:23.411Z,99.90
2019-03-03T18:32:56.798Z,99.90
2019-03-03T18:35:29.649Z,99.90
2019-03-03T18:38:03.025Z,99.90
2019-03-03T18:40:34.667Z,99.90
2019-03-03T18:43:09.803Z,99.90
2019-03-03T18:45:43.568Z,99.90
2019-03-03T18:48:21.541Z,99.90
2019-03-03T18:50:58.344Z,99.90
2019-03-03T18:53:30.579Z,99.90
2019-03-03T18:56:07.183Z,99.90
2019-03-03T18:58:42.606Z,99.90
2019-03-03T19:01:14.890Z,99.90
2019-03-03T19:03:47.924Z,99.90
2019-03-03T19:06:20.471Z,99.90
2019-03-03T19:08:51.590Z,99.90
2019-03-03T19:11:23.711Z,99.90
2019-03-03T19:13:56.865Z,99.90
2019-03-03T19:16:29.044Z,99.90
2019-03-03T19:19:01.936Z,99.90
2019-03-03T19:21:33.687Z,99.90
2019-03-03T19:24:10.066Z,99.90
2019-03-03T19:26:43.780Z,99.90
2019-03-03T19:29:15.026Z,99.90
2019-03-03T19:31:45.568Z,99.90
2019-03-03T19:34:18.579Z,99.90
2019-03-03T19:36:49.475Z,99.90
2019-03-03T19:39:24.759Z,99.90
2019-03-03T19:42:02.635Z,99.90
2019-03-03T19:44:35.050Z,99.90
2019-03-03T19:47:06.070Z,99.90
2019-03-03T19:49:38.119Z,99.90
2019-03-03T19:52:11.848Z,99.90
2019-03-03T19:54:44.246Z,99.90
2019-03-03T19:57:14.652Z,99.90
2019-03-03T19:59:45.665Z,99.90
2019-03-03T20:02:16.132Z,99.90
2019-03-03T20:04:46.469Z,99.90
2019-03-03T20:07:16.696Z,99.90
2019-03-03T20:09:47.572Z,99.90
2019-03-03T20:12:18.098Z,99.90
2019-03-03T20:14:48.477Z,99.90
2019-03-03T20:17:19.418Z,99.90
2019-03-03T20:19:50.666Z,99.90
2019-03-03T20:22:21.395Z,99.90
2019-03-03T20:24:52.623Z,99.90
2019-03-03T20:27:24.696Z,99.90
2019-03-03T20:29:55.717Z,99.90
2019-03-03T20:32:26.803Z,99.90
2019-03-03T20:34:58.792Z,99.90
2019-03-03T20:37:30.745Z,99.90
2019-03-03T20:40:05.366Z,99.90
2019-03-03T20:42:38.598Z,99.90
2019-03-03T20:45:13.101Z,99.90
2019-03-03T20:47:45.927Z,99.90
2019-03-03T20:50:20.471Z,99.90
2019-03-03T20:52:55.332Z,99.90
2019-03-03T20:55:30.363Z,99.90
2019-03-03T20:58:03.527Z,99.90
2019-03-03T21:00:39.631Z,99.90
2019-03-03T21:03:14.763Z,99.90
2019-03-03T21:05:53.746Z,99.90
2019-03-03T21:08:25.517Z,99.90
2019-03-03T21:11:02.334Z,99.90
2019-03-03T21:13:34.538Z,99.90
2019-03-03T21:16:08.921Z,99.90
2019-03-03T21:18:44.728Z,99.90
2019-03-03T21:21:27.185Z,99.90
2019-03-03T21:24:00.424Z,99.90
2019-03-03T21:26:36.488Z,99.90
2019-03-03T21:29:13.663Z,99.90
2019-03-03T21:31:45.954Z,99.90
2019-03-03T21:34:17.495Z,99.90
2019-03-03T21:36:54.159Z,99.90
2019-03-03T21:39:29.090Z,99.90
2019-03-03T21:42:02.309Z,99.90
2019-03-03T21:44:37.284Z,99.90
2019-03-03T21:47:08.934Z,99.90
2019-03-03T21:49:44.281Z,99.90
2019-03-03T21:52:20.458Z,99.90
2019-03-03T21:54:55.870Z,99.90
2019-03-03T21:57:28.468Z,99.90
2019-03-03T22:00:02.964Z,99.90
2019-03-03T22:02:37.162Z,99.90
2019-03-03T22:05:10.975Z,99.90
2019-03-03T22:07:44.823Z,99.90
2019-03-03T22:10:15.774Z,99.90
2019-03-03T22:12:51.090Z,99.90
2019-03-03T22:15:27.837Z,99.90
2019-03-03T22:18:01.661Z,99.90
2019-03-03T22:20:34.277Z,99.90
2019-03-03T22:23:07.602Z,99.90
2019-03-03T22:25:39.589Z,99.90
2019-03-03T22:28:10.953Z,99.90
2019-03-03T22:30:44.019Z,99.90
2019-03-03T22:33:19.566Z,99.90
2019-03-03T22:35:55.009Z,99.90
2019-03-03T22:38:29.359Z,99.90
2019-03-03T22:41:02.144Z,99.90
2019-03-03T22:43:38.672Z,99.90
2019-03-03T22:46:10.289Z,99.90
2019-03-03T22:48:42.086Z,99.90
2019-03-03T22:51:13.322Z,99.90
2019-03-03T22:53:47.769Z,99.90
2019-03-03T22:56:19.566Z,99.90
2019-03-03T22:58:54.653Z,99.90
2019-03-03T23:01:34.056Z,99.90
2019-03-03T23:04:38.618Z,99.90
2019-03-03T23:07:47.967Z,99.90
2019-03-03T23:11:18.559Z,99.90
2019-03-03T23:14:31.266Z,99.90
2019-03-03T23:17:27.054Z,99.90
2019-03-03T23:20:41.003Z,99.90
2019-03-03T23:23:53.705Z,99.90
2019-03-03T23:26:27.901Z,99.90
2019-03-03T23:29:04.772Z,99.90
2019-03-03T23:31:43.062Z,99.90
2019-03-03T23:34:19.318Z,99.90
2019-03-03T23:36:54.367Z,99.90
2019-03-03T23:39:28.151Z,99.90
2019-03-03T23:42:02.381Z,99.90
2019-03-03T23:44:34.124Z,99.90
2019-03-03T23:47:06.327Z,99.90
2019-03-03T23:49:39.203Z,99.90
2019-03-03T23:52:18.285Z,99.90
2019-03-03T23:54:55.689Z,99.90
2019-03-03T23:57:29.333Z,99.90
